sensor_id;sensor_type;location;lat;lon;timestamp;temperature;humidity
74364;DHT22;62797;49.740;10.154;2022-09-30T00:01:31;5.70;69.70
74364;DHT22;62797;49.740;10.154;2022-09-30T00:03:57;5.70;67.80
74364;DHT22;62797;49.740;10.154;2022-09-30T00:06:27;5.70;69.10
74364;DHT22;62797;49.740;10.154;2022-09-30T00:08:54;5.70;71.00
74364;DHT22;62797;49.740;10.154;2022-09-30T00:11:23;5.70;70.00
74364;DHT22;62797;49.740;10.154;2022-09-30T00:13:50;5.70;69.70
74364;DHT22;62797;49.740;10.154;2022-09-30T00:16:18;5.70;69.70
74364;DHT22;62797;49.740;10.154;2022-09-30T00:18:45;5.70;69.20
74364;DHT22;62797;49.740;10.154;2022-09-30T00:21:12;5.70;68.10
74364;DHT22;62797;49.740;10.154;2022-09-30T00:23:39;5.60;66.10
74364;DHT22;62797;49.740;10.154;2022-09-30T00:26:05;5.60;66.90
74364;DHT22;62797;49.740;10.154;2022-09-30T00:28:32;5.50;68.50
74364;DHT22;62797;49.740;10.154;2022-09-30T00:31:02;5.50;69.50
74364;DHT22;62797;49.740;10.154;2022-09-30T00:33:29;5.50;69.90
74364;DHT22;62797;49.740;10.154;2022-09-30T00:35:55;5.50;69.10
74364;DHT22;62797;49.740;10.154;2022-09-30T00:38:21;5.50;68.70
74364;DHT22;62797;49.740;10.154;2022-09-30T00:40:46;5.50;68.70
74364;DHT22;62797;49.740;10.154;2022-09-30T00:43:13;5.50;69.60
74364;DHT22;62797;49.740;10.154;2022-09-30T00:45:45;5.40;70.40
74364;DHT22;62797;49.740;10.154;2022-09-30T00:48:18;5.40;69.60
74364;DHT22;62797;49.740;10.154;2022-09-30T00:50:46;5.40;68.80
74364;DHT22;62797;49.740;10.154;2022-09-30T00:55:49;5.40;69.50
74364;DHT22;62797;49.740;10.154;2022-09-30T00:59:08;5.30;67.90
74364;DHT22;62797;49.740;10.154;2022-09-30T01:01:08;5.30;67.10
74364;DHT22;62797;49.740;10.154;2022-09-30T01:03:37;5.20;67.90
74364;DHT22;62797;49.740;10.154;2022-09-30T01:06:04;5.20;67.20
74364;DHT22;62797;49.740;10.154;2022-09-30T01:08:31;5.10;66.80
74364;DHT22;62797;49.740;10.154;2022-09-30T01:10:58;5.10;69.30
74364;DHT22;62797;49.740;10.154;2022-09-30T01:13:24;5.10;70.30
74364;DHT22;62797;49.740;10.154;2022-09-30T01:16:09;5.10;67.80
74364;DHT22;62797;49.740;10.154;2022-09-30T01:22:23;5.10;69.90
74364;DHT22;62797;49.740;10.154;2022-09-30T01:30:54;5.00;70.20
74364;DHT22;62797;49.740;10.154;2022-09-30T01:44:20;5.00;71.90
74364;DHT22;62797;49.740;10.154;2022-09-30T01:46:58;5.00;71.10
74364;DHT22;62797;49.740;10.154;2022-09-30T01:49:31;5.10;70.80
74364;DHT22;62797;49.740;10.154;2022-09-30T01:54:48;5.20;72.50
74364;DHT22;62797;49.740;10.154;2022-09-30T01:57:29;5.20;71.90
74364;DHT22;62797;49.740;10.154;2022-09-30T02:00:03;5.20;71.50
74364;DHT22;62797;49.740;10.154;2022-09-30T02:02:33;5.30;70.70
74364;DHT22;62797;49.740;10.154;2022-09-30T02:05:13;5.30;71.10
74364;DHT22;62797;49.740;10.154;2022-09-30T02:08:04;5.30;72.40
74364;DHT22;62797;49.740;10.154;2022-09-30T02:10:34;5.40;71.30
74364;DHT22;62797;49.740;10.154;2022-09-30T02:13:08;5.40;70.40
74364;DHT22;62797;49.740;10.154;2022-09-30T02:15:38;5.50;72.00
74364;DHT22;62797;49.740;10.154;2022-09-30T02:18:11;5.50;72.90
74364;DHT22;62797;49.740;10.154;2022-09-30T02:20:41;5.50;72.40
74364;DHT22;62797;49.740;10.154;2022-09-30T02:23:12;5.50;71.00
74364;DHT22;62797;49.740;10.154;2022-09-30T02:26:04;5.50;69.00
74364;DHT22;62797;49.740;10.154;2022-09-30T02:28:34;5.50;70.10
74364;DHT22;62797;49.740;10.154;2022-09-30T02:31:02;5.40;70.40
74364;DHT22;62797;49.740;10.154;2022-09-30T02:33:41;5.50;72.40
74364;DHT22;62797;49.740;10.154;2022-09-30T02:36:15;5.50;69.20
74364;DHT22;62797;49.740;10.154;2022-09-30T02:38:45;5.50;69.10
74364;DHT22;62797;49.740;10.154;2022-09-30T02:41:18;5.50;68.60
74364;DHT22;62797;49.740;10.154;2022-09-30T02:43:47;5.40;68.90
74364;DHT22;62797;49.740;10.154;2022-09-30T02:46:24;5.40;69.20
74364;DHT22;62797;49.740;10.154;2022-09-30T02:55:07;5.40;71.00
74364;DHT22;62797;49.740;10.154;2022-09-30T02:57:13;5.30;71.10
74364;DHT22;62797;49.740;10.154;2022-09-30T02:59:43;5.30;71.90
74364;DHT22;62797;49.740;10.154;2022-09-30T03:02:09;5.30;72.20
74364;DHT22;62797;49.740;10.154;2022-09-30T03:04:37;5.30;72.90
74364;DHT22;62797;49.740;10.154;2022-09-30T03:07:05;5.40;72.60
74364;DHT22;62797;49.740;10.154;2022-09-30T03:09:34;5.40;72.30
74364;DHT22;62797;49.740;10.154;2022-09-30T03:12:53;5.30;72.40
74364;DHT22;62797;49.740;10.154;2022-09-30T03:15:35;5.40;71.50
74364;DHT22;62797;49.740;10.154;2022-09-30T03:21:06;5.20;72.30
74364;DHT22;62797;49.740;10.154;2022-09-30T03:26:51;5.20;71.70
74364;DHT22;62797;49.740;10.154;2022-09-30T03:29:32;5.20;72.20
74364;DHT22;62797;49.740;10.154;2022-09-30T03:34:35;5.20;71.70
74364;DHT22;62797;49.740;10.154;2022-09-30T03:39:59;5.20;70.70
74364;DHT22;62797;49.740;10.154;2022-09-30T03:42:27;5.20;70.70
74364;DHT22;62797;49.740;10.154;2022-09-30T03:44:59;5.10;70.20
74364;DHT22;62797;49.740;10.154;2022-09-30T03:47:30;5.10;70.80
74364;DHT22;62797;49.740;10.154;2022-09-30T03:50:00;5.00;70.80
74364;DHT22;62797;49.740;10.154;2022-09-30T03:52:29;4.90;71.20
74364;DHT22;62797;49.740;10.154;2022-09-30T03:55:00;4.90;72.00
74364;DHT22;62797;49.740;10.154;2022-09-30T03:57:27;5.00;72.00
74364;DHT22;62797;49.740;10.154;2022-09-30T03:59:54;5.00;71.90
74364;DHT22;62797;49.740;10.154;2022-09-30T04:02:19;5.00;72.00
74364;DHT22;62797;49.740;10.154;2022-09-30T04:04:45;5.00;71.80
74364;DHT22;62797;49.740;10.154;2022-09-30T04:07:11;5.00;71.30
74364;DHT22;62797;49.740;10.154;2022-09-30T04:09:40;5.00;71.20
74364;DHT22;62797;49.740;10.154;2022-09-30T04:12:06;5.10;71.80
74364;DHT22;62797;49.740;10.154;2022-09-30T04:14:32;5.10;72.40
74364;DHT22;62797;49.740;10.154;2022-09-30T04:16:58;5.20;72.50
74364;DHT22;62797;49.740;10.154;2022-09-30T04:19:23;5.20;71.90
74364;DHT22;62797;49.740;10.154;2022-09-30T04:21:53;5.20;72.50
74364;DHT22;62797;49.740;10.154;2022-09-30T04:24:20;5.20;72.50
74364;DHT22;62797;49.740;10.154;2022-09-30T04:26:46;5.30;73.30
74364;DHT22;62797;49.740;10.154;2022-09-30T04:29:12;5.30;73.60
74364;DHT22;62797;49.740;10.154;2022-09-30T04:31:37;5.30;73.10
74364;DHT22;62797;49.740;10.154;2022-09-30T04:34:03;5.40;73.60
74364;DHT22;62797;49.740;10.154;2022-09-30T04:36:29;5.40;72.80
74364;DHT22;62797;49.740;10.154;2022-09-30T04:38:54;5.40;71.90
74364;DHT22;62797;49.740;10.154;2022-09-30T04:41:20;5.40;71.70
74364;DHT22;62797;49.740;10.154;2022-09-30T04:43:46;5.40;73.30
74364;DHT22;62797;49.740;10.154;2022-09-30T04:46:14;5.30;72.40
74364;DHT22;62797;49.740;10.154;2022-09-30T04:48:40;5.20;72.30
74364;DHT22;62797;49.740;10.154;2022-09-30T04:51:13;5.20;73.50
74364;DHT22;62797;49.740;10.154;2022-09-30T04:53:39;5.20;72.90
74364;DHT22;62797;49.740;10.154;2022-09-30T04:56:05;5.20;73.60
74364;DHT22;62797;49.740;10.154;2022-09-30T04:58:31;5.40;73.70
74364;DHT22;62797;49.740;10.154;2022-09-30T05:01:05;5.40;73.50
74364;DHT22;62797;49.740;10.154;2022-09-30T05:03:31;5.40;73.50
74364;DHT22;62797;49.740;10.154;2022-09-30T05:05:58;5.50;73.50
74364;DHT22;62797;49.740;10.154;2022-09-30T05:08:24;5.60;73.60
74364;DHT22;62797;49.740;10.154;2022-09-30T05:10:57;5.70;73.60
74364;DHT22;62797;49.740;10.154;2022-09-30T05:13:34;5.60;71.90
74364;DHT22;62797;49.740;10.154;2022-09-30T05:16:00;5.60;72.60
74364;DHT22;62797;49.740;10.154;2022-09-30T05:18:27;5.50;71.30
74364;DHT22;62797;49.740;10.154;2022-09-30T05:20:53;5.50;72.30
74364;DHT22;62797;49.740;10.154;2022-09-30T05:23:19;5.50;71.60
74364;DHT22;62797;49.740;10.154;2022-09-30T05:25:46;5.50;72.90
74364;DHT22;62797;49.740;10.154;2022-09-30T05:28:12;5.50;72.60
74364;DHT22;62797;49.740;10.154;2022-09-30T05:30:37;5.60;72.30
74364;DHT22;62797;49.740;10.154;2022-09-30T05:33:03;5.50;71.90
74364;DHT22;62797;49.740;10.154;2022-09-30T05:35:29;5.50;71.40
74364;DHT22;62797;49.740;10.154;2022-09-30T05:37:55;5.40;70.90
74364;DHT22;62797;49.740;10.154;2022-09-30T05:40:21;5.40;71.70
74364;DHT22;62797;49.740;10.154;2022-09-30T05:42:46;5.40;72.30
74364;DHT22;62797;49.740;10.154;2022-09-30T05:45:12;5.30;71.20
74364;DHT22;62797;49.740;10.154;2022-09-30T05:47:38;5.30;72.20
74364;DHT22;62797;49.740;10.154;2022-09-30T05:50:04;5.30;72.30
74364;DHT22;62797;49.740;10.154;2022-09-30T05:52:30;5.30;72.10
74364;DHT22;62797;49.740;10.154;2022-09-30T05:54:56;5.20;71.90
74364;DHT22;62797;49.740;10.154;2022-09-30T05:57:28;5.20;72.20
74364;DHT22;62797;49.740;10.154;2022-09-30T05:59:54;5.20;72.00
74364;DHT22;62797;49.740;10.154;2022-09-30T06:02:20;5.20;72.60
74364;DHT22;62797;49.740;10.154;2022-09-30T06:04:46;5.20;72.10
74364;DHT22;62797;49.740;10.154;2022-09-30T06:07:11;5.20;71.90
74364;DHT22;62797;49.740;10.154;2022-09-30T06:09:38;5.20;71.80
74364;DHT22;62797;49.740;10.154;2022-09-30T06:12:03;5.30;72.20
74364;DHT22;62797;49.740;10.154;2022-09-30T06:14:30;5.20;72.40
74364;DHT22;62797;49.740;10.154;2022-09-30T06:16:57;5.30;72.40
74364;DHT22;62797;49.740;10.154;2022-09-30T06:19:25;5.40;72.20
74364;DHT22;62797;49.740;10.154;2022-09-30T06:21:52;5.40;71.60
74364;DHT22;62797;49.740;10.154;2022-09-30T06:24:17;5.50;72.20
74364;DHT22;62797;49.740;10.154;2022-09-30T06:26:43;5.50;72.20
74364;DHT22;62797;49.740;10.154;2022-09-30T06:29:08;5.60;71.60
74364;DHT22;62797;49.740;10.154;2022-09-30T06:31:34;5.70;71.60
74364;DHT22;62797;49.740;10.154;2022-09-30T06:34:00;5.70;71.40
74364;DHT22;62797;49.740;10.154;2022-09-30T06:36:26;5.70;72.10
74364;DHT22;62797;49.740;10.154;2022-09-30T06:38:53;5.70;72.30
74364;DHT22;62797;49.740;10.154;2022-09-30T06:41:20;5.80;73.90
74364;DHT22;62797;49.740;10.154;2022-09-30T06:43:45;5.90;74.70
74364;DHT22;62797;49.740;10.154;2022-09-30T06:46:11;5.90;74.60
74364;DHT22;62797;49.740;10.154;2022-09-30T06:48:38;6.00;74.30
74364;DHT22;62797;49.740;10.154;2022-09-30T06:51:04;6.00;74.00
74364;DHT22;62797;49.740;10.154;2022-09-30T06:53:30;6.10;73.20
74364;DHT22;62797;49.740;10.154;2022-09-30T06:55:56;6.10;72.90
74364;DHT22;62797;49.740;10.154;2022-09-30T06:58:22;6.00;71.20
74364;DHT22;62797;49.740;10.154;2022-09-30T07:01:03;6.00;70.70
74364;DHT22;62797;49.740;10.154;2022-09-30T07:03:31;5.90;71.80
74364;DHT22;62797;49.740;10.154;2022-09-30T07:05:58;6.00;73.10
74364;DHT22;62797;49.740;10.154;2022-09-30T07:08:25;6.10;72.60
74364;DHT22;62797;49.740;10.154;2022-09-30T07:10:54;6.20;72.90
74364;DHT22;62797;49.740;10.154;2022-09-30T07:13:20;6.20;72.60
74364;DHT22;62797;49.740;10.154;2022-09-30T07:15:45;6.20;72.70
74364;DHT22;62797;49.740;10.154;2022-09-30T07:18:11;6.30;72.50
74364;DHT22;62797;49.740;10.154;2022-09-30T07:20:36;6.30;71.30
74364;DHT22;62797;49.740;10.154;2022-09-30T07:23:02;6.20;70.20
74364;DHT22;62797;49.740;10.154;2022-09-30T07:25:27;6.20;71.10
74364;DHT22;62797;49.740;10.154;2022-09-30T07:27:53;6.30;71.70
74364;DHT22;62797;49.740;10.154;2022-09-30T07:30:20;6.40;72.70
74364;DHT22;62797;49.740;10.154;2022-09-30T07:32:45;6.50;71.90
74364;DHT22;62797;49.740;10.154;2022-09-30T07:35:11;6.50;71.50
74364;DHT22;62797;49.740;10.154;2022-09-30T07:37:36;6.50;72.30
74364;DHT22;62797;49.740;10.154;2022-09-30T07:40:06;6.60;70.10
74364;DHT22;62797;49.740;10.154;2022-09-30T07:42:36;6.60;68.80
74364;DHT22;62797;49.740;10.154;2022-09-30T07:45:03;6.50;68.60
74364;DHT22;62797;49.740;10.154;2022-09-30T07:47:29;6.50;70.40
74364;DHT22;62797;49.740;10.154;2022-09-30T07:49:55;6.60;71.30
74364;DHT22;62797;49.740;10.154;2022-09-30T07:52:20;6.60;70.50
74364;DHT22;62797;49.740;10.154;2022-09-30T07:54:46;6.70;71.90
74364;DHT22;62797;49.740;10.154;2022-09-30T07:57:11;6.80;71.80
74364;DHT22;62797;49.740;10.154;2022-09-30T07:59:39;6.90;70.90
74364;DHT22;62797;49.740;10.154;2022-09-30T08:02:07;7.00;69.80
74364;DHT22;62797;49.740;10.154;2022-09-30T08:04:33;7.00;68.00
74364;DHT22;62797;49.740;10.154;2022-09-30T08:07:01;7.00;68.20
74364;DHT22;62797;49.740;10.154;2022-09-30T08:09:28;7.00;68.80
74364;DHT22;62797;49.740;10.154;2022-09-30T08:11:54;7.10;68.60
74364;DHT22;62797;49.740;10.154;2022-09-30T08:14:22;7.10;68.60
74364;DHT22;62797;49.740;10.154;2022-09-30T08:16:48;7.10;68.10
74364;DHT22;62797;49.740;10.154;2022-09-30T08:19:19;7.20;69.20
74364;DHT22;62797;49.740;10.154;2022-09-30T08:21:45;7.20;67.30
74364;DHT22;62797;49.740;10.154;2022-09-30T08:24:11;7.30;68.00
74364;DHT22;62797;49.740;10.154;2022-09-30T08:26:37;7.20;67.30
74364;DHT22;62797;49.740;10.154;2022-09-30T08:29:03;7.20;67.30
74364;DHT22;62797;49.740;10.154;2022-09-30T08:31:28;7.30;68.10
74364;DHT22;62797;49.740;10.154;2022-09-30T08:33:54;7.30;69.00
74364;DHT22;62797;49.740;10.154;2022-09-30T08:36:22;7.40;66.90
74364;DHT22;62797;49.740;10.154;2022-09-30T08:38:49;7.40;65.90
74364;DHT22;62797;49.740;10.154;2022-09-30T08:41:31;7.40;64.90
74364;DHT22;62797;49.740;10.154;2022-09-30T08:52:44;7.80;68.20
74364;DHT22;62797;49.740;10.154;2022-09-30T08:55:22;7.80;65.30
74364;DHT22;62797;49.740;10.154;2022-09-30T08:57:49;7.80;64.50
74364;DHT22;62797;49.740;10.154;2022-09-30T09:00:17;7.80;66.30
74364;DHT22;62797;49.740;10.154;2022-09-30T09:02:54;7.90;66.40
74364;DHT22;62797;49.740;10.154;2022-09-30T09:08:24;8.20;65.60
74364;DHT22;62797;49.740;10.154;2022-09-30T09:11:16;8.30;65.20
74364;DHT22;62797;49.740;10.154;2022-09-30T09:13:51;8.30;65.20
74364;DHT22;62797;49.740;10.154;2022-09-30T09:16:34;8.30;65.00
74364;DHT22;62797;49.740;10.154;2022-09-30T09:21:56;8.70;66.10
74364;DHT22;62797;49.740;10.154;2022-09-30T09:24:27;8.90;63.50
74364;DHT22;62797;49.740;10.154;2022-09-30T09:26:56;8.90;64.20
74364;DHT22;62797;49.740;10.154;2022-09-30T09:31:48;9.00;62.30
74364;DHT22;62797;49.740;10.154;2022-09-30T09:34:14;9.00;62.30
74364;DHT22;62797;49.740;10.154;2022-09-30T09:36:56;9.10;65.00
74364;DHT22;62797;49.740;10.154;2022-09-30T09:42:05;9.50;62.20
74364;DHT22;62797;49.740;10.154;2022-09-30T09:47:16;9.50;61.80
74364;DHT22;62797;49.740;10.154;2022-09-30T09:49:49;9.50;62.10
74364;DHT22;62797;49.740;10.154;2022-09-30T09:55:12;9.70;60.80
74364;DHT22;62797;49.740;10.154;2022-09-30T09:57:38;9.70;61.90
74364;DHT22;62797;49.740;10.154;2022-09-30T10:03:05;9.90;61.70
74364;DHT22;62797;49.740;10.154;2022-09-30T10:05:33;10.00;62.50
74364;DHT22;62797;49.740;10.154;2022-09-30T10:08:11;10.10;62.60
74364;DHT22;62797;49.740;10.154;2022-09-30T10:10:53;10.30;62.40
74364;DHT22;62797;49.740;10.154;2022-09-30T10:13:23;10.30;61.60
74364;DHT22;62797;49.740;10.154;2022-09-30T10:15:54;10.30;62.00
74364;DHT22;62797;49.740;10.154;2022-09-30T10:21:03;10.30;62.60
74364;DHT22;62797;49.740;10.154;2022-09-30T10:23:30;10.30;62.90
74364;DHT22;62797;49.740;10.154;2022-09-30T10:31:33;10.60;62.00
74364;DHT22;62797;49.740;10.154;2022-09-30T10:36:45;10.60;62.50
74364;DHT22;62797;49.740;10.154;2022-09-30T10:39:24;10.70;62.10
74364;DHT22;62797;49.740;10.154;2022-09-30T10:44:27;10.80;61.70
74364;DHT22;62797;49.740;10.154;2022-09-30T10:46:58;11.00;63.80
74364;DHT22;62797;49.740;10.154;2022-09-30T10:52:00;11.50;61.40
74364;DHT22;62797;49.740;10.154;2022-09-30T10:54:54;11.80;60.60
74364;DHT22;62797;49.740;10.154;2022-09-30T10:57:28;12.00;59.80
74364;DHT22;62797;49.740;10.154;2022-09-30T11:00:04;12.10;57.90
74364;DHT22;62797;49.740;10.154;2022-09-30T11:02:54;12.10;55.40
74364;DHT22;62797;49.740;10.154;2022-09-30T11:05:25;12.10;55.90
74364;DHT22;62797;49.740;10.154;2022-09-30T11:08:02;12.20;56.10
74364;DHT22;62797;49.740;10.154;2022-09-30T11:10:44;12.30;55.10
74364;DHT22;62797;49.740;10.154;2022-09-30T11:13:46;12.30;52.80
74364;DHT22;62797;49.740;10.154;2022-09-30T11:16:32;12.30;50.40
74364;DHT22;62797;49.740;10.154;2022-09-30T11:19:30;12.20;52.00
74364;DHT22;62797;49.740;10.154;2022-09-30T11:24:49;12.40;52.30
74364;DHT22;62797;49.740;10.154;2022-09-30T11:27:43;12.60;51.00
74364;DHT22;62797;49.740;10.154;2022-09-30T11:30:19;12.80;50.30
74364;DHT22;62797;49.740;10.154;2022-09-30T11:33:17;13.20;50.80
74364;DHT22;62797;49.740;10.154;2022-09-30T11:35:58;13.50;42.60
74364;DHT22;62797;49.740;10.154;2022-09-30T11:58:12;14.90;38.90
74364;DHT22;62797;49.740;10.154;2022-09-30T12:00:42;14.80;36.80
74364;DHT22;62797;49.740;10.154;2022-09-30T12:03:19;14.80;41.00
74364;DHT22;62797;49.740;10.154;2022-09-30T12:05:51;15.00;37.90
74364;DHT22;62797;49.740;10.154;2022-09-30T12:13:48;15.30;34.80
74364;DHT22;62797;49.740;10.154;2022-09-30T12:16:19;15.20;32.50
74364;DHT22;62797;49.740;10.154;2022-09-30T12:18:58;15.50;31.70
74364;DHT22;62797;49.740;10.154;2022-09-30T12:21:37;15.70;31.40
74364;DHT22;62797;49.740;10.154;2022-09-30T12:24:23;16.10;31.10
74364;DHT22;62797;49.740;10.154;2022-09-30T12:26:50;16.30;29.90
74364;DHT22;62797;49.740;10.154;2022-09-30T12:35:41;16.60;27.00
74364;DHT22;62797;49.740;10.154;2022-09-30T12:49:22;16.40;21.50
74364;DHT22;62797;49.740;10.154;2022-09-30T12:51:56;16.60;26.40
74364;DHT22;62797;49.740;10.154;2022-09-30T12:54:57;16.90;26.40
74364;DHT22;62797;49.740;10.154;2022-09-30T12:57:29;17.00;21.10
74364;DHT22;62797;49.740;10.154;2022-09-30T13:00:01;16.80;23.60
74364;DHT22;62797;49.740;10.154;2022-09-30T13:10:43;16.80;23.60
74364;DHT22;62797;49.740;10.154;2022-09-30T13:15:44;17.00;22.70
74364;DHT22;62797;49.740;10.154;2022-09-30T13:21:17;17.90;22.10
74364;DHT22;62797;49.740;10.154;2022-09-30T13:34:31;19.20;21.00
74364;DHT22;62797;49.740;10.154;2022-09-30T13:37:04;19.60;19.60
74364;DHT22;62797;49.740;10.154;2022-09-30T13:42:30;19.50;19.10
74364;DHT22;62797;49.740;10.154;2022-09-30T13:45:15;20.20;17.80
74364;DHT22;62797;49.740;10.154;2022-09-30T13:47:47;20.40;16.10
74364;DHT22;62797;49.740;10.154;2022-09-30T13:50:34;20.30;19.70
74364;DHT22;62797;49.740;10.154;2022-09-30T13:53:05;20.80;17.10
74364;DHT22;62797;49.740;10.154;2022-09-30T13:55:40;20.70;17.20
74364;DHT22;62797;49.740;10.154;2022-09-30T13:58:11;20.80;16.90
74364;DHT22;62797;49.740;10.154;2022-09-30T14:00:51;20.80;17.10
74364;DHT22;62797;49.740;10.154;2022-09-30T14:06:20;21.80;16.00
74364;DHT22;62797;49.740;10.154;2022-09-30T14:09:00;21.70;14.90
74364;DHT22;62797;49.740;10.154;2022-09-30T14:11:43;22.00;14.60
74364;DHT22;62797;49.740;10.154;2022-09-30T14:23:16;21.60;11.70
74364;DHT22;62797;49.740;10.154;2022-09-30T14:28:36;21.30;10.60
74364;DHT22;62797;49.740;10.154;2022-09-30T14:31:03;21.30;12.30
74364;DHT22;62797;49.740;10.154;2022-09-30T14:33:37;21.20;12.40
74364;DHT22;62797;49.740;10.154;2022-09-30T14:36:10;21.00;13.60
74364;DHT22;62797;49.740;10.154;2022-09-30T14:38:38;21.20;12.40
74364;DHT22;62797;49.740;10.154;2022-09-30T14:41:06;21.10;13.90
74364;DHT22;62797;49.740;10.154;2022-09-30T14:43:42;21.50;14.10
74364;DHT22;62797;49.740;10.154;2022-09-30T14:46:19;21.60;13.70
74364;DHT22;62797;49.740;10.154;2022-09-30T14:48:50;21.50;14.30
74364;DHT22;62797;49.740;10.154;2022-09-30T14:51:16;21.40;12.90
74364;DHT22;62797;49.740;10.154;2022-09-30T14:53:57;21.20;14.20
74364;DHT22;62797;49.740;10.154;2022-09-30T14:58:52;21.10;12.90
74364;DHT22;62797;49.740;10.154;2022-09-30T15:01:21;21.00;13.60
74364;DHT22;62797;49.740;10.154;2022-09-30T15:03:52;21.20;13.90
74364;DHT22;62797;49.740;10.154;2022-09-30T15:06:31;21.20;13.50
74364;DHT22;62797;49.740;10.154;2022-09-30T15:11:53;21.80;12.40
74364;DHT22;62797;49.740;10.154;2022-09-30T15:14:21;21.80;12.90
74364;DHT22;62797;49.740;10.154;2022-09-30T15:16:55;21.90;14.00
74364;DHT22;62797;49.740;10.154;2022-09-30T15:19:32;21.90;12.60
74364;DHT22;62797;49.740;10.154;2022-09-30T15:22:02;21.70;11.70
74364;DHT22;62797;49.740;10.154;2022-09-30T15:24:30;22.10;14.50
74364;DHT22;62797;49.740;10.154;2022-09-30T15:26:58;23.10;13.50
74364;DHT22;62797;49.740;10.154;2022-09-30T15:29:24;23.60;13.50
74364;DHT22;62797;49.740;10.154;2022-09-30T15:32:14;23.90;11.80
74364;DHT22;62797;49.740;10.154;2022-09-30T15:34:40;23.50;9.90
74364;DHT22;62797;49.740;10.154;2022-09-30T15:37:22;22.80;12.50
74364;DHT22;62797;49.740;10.154;2022-09-30T15:39:48;23.10;12.30
74364;DHT22;62797;49.740;10.154;2022-09-30T15:42:37;23.20;12.40
74364;DHT22;62797;49.740;10.154;2022-09-30T15:45:17;23.10;12.60
74364;DHT22;62797;49.740;10.154;2022-09-30T15:47:57;23.40;13.30
74364;DHT22;62797;49.740;10.154;2022-09-30T15:50:37;23.60;13.90
74364;DHT22;62797;49.740;10.154;2022-09-30T15:53:11;24.00;13.00
74364;DHT22;62797;49.740;10.154;2022-09-30T15:55:46;23.70;13.20
74364;DHT22;62797;49.740;10.154;2022-09-30T15:58:40;23.20;11.50
74364;DHT22;62797;49.740;10.154;2022-09-30T16:03:35;22.50;14.10
74364;DHT22;62797;49.740;10.154;2022-09-30T16:06:44;22.30;14.40
74364;DHT22;62797;49.740;10.154;2022-09-30T16:08:54;22.30;16.10
74364;DHT22;62797;49.740;10.154;2022-09-30T16:11:31;22.30;15.90
74364;DHT22;62797;49.740;10.154;2022-09-30T16:14:00;21.80;14.10
74364;DHT22;62797;49.740;10.154;2022-09-30T16:16:29;20.90;15.30
74364;DHT22;62797;49.740;10.154;2022-09-30T16:18:57;20.40;15.80
74364;DHT22;62797;49.740;10.154;2022-09-30T16:23:55;19.60;18.80
74364;DHT22;62797;49.740;10.154;2022-09-30T16:26:26;19.30;19.80
74364;DHT22;62797;49.740;10.154;2022-09-30T16:28:55;18.80;21.10
74364;DHT22;62797;49.740;10.154;2022-09-30T16:31:26;18.50;22.00
74364;DHT22;62797;49.740;10.154;2022-09-30T16:33:51;18.10;22.90
74364;DHT22;62797;49.740;10.154;2022-09-30T16:36:17;17.50;23.90
74364;DHT22;62797;49.740;10.154;2022-09-30T16:38:42;17.00;25.60
74364;DHT22;62797;49.740;10.154;2022-09-30T16:41:12;16.50;26.70
74364;DHT22;62797;49.740;10.154;2022-09-30T16:43:38;16.30;27.90
74364;DHT22;62797;49.740;10.154;2022-09-30T16:46:04;16.00;28.60
74364;DHT22;62797;49.740;10.154;2022-09-30T16:48:30;15.60;30.20
74364;DHT22;62797;49.740;10.154;2022-09-30T16:51:06;15.20;31.60
74364;DHT22;62797;49.740;10.154;2022-09-30T16:53:33;14.90;33.20
74364;DHT22;62797;49.740;10.154;2022-09-30T16:55:58;14.60;33.70
74364;DHT22;62797;49.740;10.154;2022-09-30T16:58:24;14.30;34.90
74364;DHT22;62797;49.740;10.154;2022-09-30T17:00:50;14.00;36.00
74364;DHT22;62797;49.740;10.154;2022-09-30T17:03:17;13.80;37.10
74364;DHT22;62797;49.740;10.154;2022-09-30T17:05:45;13.50;38.50
74364;DHT22;62797;49.740;10.154;2022-09-30T17:08:13;13.30;39.50
74364;DHT22;62797;49.740;10.154;2022-09-30T17:10:41;13.10;40.10
74364;DHT22;62797;49.740;10.154;2022-09-30T17:13:08;13.00;42.30
74364;DHT22;62797;49.740;10.154;2022-09-30T17:15:34;12.80;42.20
74364;DHT22;62797;49.740;10.154;2022-09-30T17:18:04;12.70;43.80
74364;DHT22;62797;49.740;10.154;2022-09-30T17:20:31;12.50;44.80
74364;DHT22;62797;49.740;10.154;2022-09-30T17:22:57;12.30;45.80
74364;DHT22;62797;49.740;10.154;2022-09-30T17:25:22;12.20;46.30
74364;DHT22;62797;49.740;10.154;2022-09-30T17:27:48;12.10;46.50
74364;DHT22;62797;49.740;10.154;2022-09-30T17:30:14;11.90;46.60
74364;DHT22;62797;49.740;10.154;2022-09-30T17:32:40;11.80;48.70
74364;DHT22;62797;49.740;10.154;2022-09-30T17:35:07;11.70;48.80
74364;DHT22;62797;49.740;10.154;2022-09-30T17:37:33;11.60;48.80
74364;DHT22;62797;49.740;10.154;2022-09-30T17:39:59;11.50;50.00
74364;DHT22;62797;49.740;10.154;2022-09-30T17:42:25;11.40;49.70
74364;DHT22;62797;49.740;10.154;2022-09-30T17:45:09;11.30;52.00
74364;DHT22;62797;49.740;10.154;2022-09-30T17:47:35;11.10;52.60
74364;DHT22;62797;49.740;10.154;2022-09-30T17:50:04;11.00;53.00
74364;DHT22;62797;49.740;10.154;2022-09-30T17:52:29;10.90;53.60
74364;DHT22;62797;49.740;10.154;2022-09-30T17:54:59;10.80;54.10
74364;DHT22;62797;49.740;10.154;2022-09-30T17:57:24;10.80;54.00
74364;DHT22;62797;49.740;10.154;2022-09-30T17:59:50;10.70;55.30
74364;DHT22;62797;49.740;10.154;2022-09-30T18:02:15;10.60;55.40
74364;DHT22;62797;49.740;10.154;2022-09-30T18:04:42;10.60;55.80
74364;DHT22;62797;49.740;10.154;2022-09-30T18:07:08;10.50;57.40
74364;DHT22;62797;49.740;10.154;2022-09-30T18:09:34;10.50;56.00
74364;DHT22;62797;49.740;10.154;2022-09-30T18:12:02;10.40;57.00
74364;DHT22;62797;49.740;10.154;2022-09-30T18:14:29;10.30;57.50
74364;DHT22;62797;49.740;10.154;2022-09-30T18:16:59;10.30;57.90
74364;DHT22;62797;49.740;10.154;2022-09-30T18:19:25;10.30;58.20
74364;DHT22;62797;49.740;10.154;2022-09-30T18:21:50;10.20;58.90
74364;DHT22;62797;49.740;10.154;2022-09-30T18:24:16;10.10;58.20
74364;DHT22;62797;49.740;10.154;2022-09-30T18:26:41;10.00;59.10
74364;DHT22;62797;49.740;10.154;2022-09-30T18:29:07;10.00;58.70
74364;DHT22;62797;49.740;10.154;2022-09-30T18:31:33;10.00;59.40
74364;DHT22;62797;49.740;10.154;2022-09-30T18:34:02;9.90;58.80
74364;DHT22;62797;49.740;10.154;2022-09-30T18:36:28;9.90;58.90
74364;DHT22;62797;49.740;10.154;2022-09-30T18:38:54;9.80;58.90
74364;DHT22;62797;49.740;10.154;2022-09-30T18:41:23;9.80;59.40
74364;DHT22;62797;49.740;10.154;2022-09-30T18:43:50;9.70;60.40
74364;DHT22;62797;49.740;10.154;2022-09-30T18:46:16;9.70;60.00
74364;DHT22;62797;49.740;10.154;2022-09-30T18:48:48;9.60;59.00
74364;DHT22;62797;49.740;10.154;2022-09-30T18:51:14;9.50;60.10